Time;durP1;ratioP1;P1;durP2;ratioP2;P2;SDS_P1;SDS_P2;PMS_P1;PMS_P2;Temp;Humidity;BMP_temperature;BMP_pressure;BME280_temperature;BME280_humidity;BME280_pressure;Samples;Min_cycle;Max_cycle;Signal;HPM_P1;HPM_P2
2022/09/17 00:00:17;;;;;;;10.27;1.50;;;16.10;84.60;;;;;;5070542;28;20411;-70
2022/09/17 00:02:46;;;;;;;7.45;1.70;;;16.00;84.50;;;;;;5066728;28;20047;-69
2022/09/17 00:05:12;;;;;;;9.32;2.28;;;16.00;83.80;;;;;;5073096;28;20037;-70
2022/09/17 00:07:38;;;;;;;5.57;1.73;;;16.00;82.80;;;;;;5074912;28;20028;-70
2022/09/17 00:10:04;;;;;;;7.07;1.67;;;16.00;81.50;;;;;;5060325;28;20109;-69
2022/09/17 00:12:31;;;;;;;18.13;1.95;;;16.00;81.70;;;;;;5062805;28;20024;-70
2022/09/17 00:14:57;;;;;;;17.25;3.20;;;16.00;81.80;;;;;;5069260;28;20147;-70
2022/09/17 00:17:22;;;;;;;9.40;2.05;;;15.90;80.60;;;;;;5083171;28;20107;-69
2022/09/17 00:19:49;;;;;;;15.55;2.63;;;15.90;80.90;;;;;;5079601;28;20464;-70
2022/09/17 00:22:15;;;;;;;18.60;2.40;;;15.90;81.00;;;;;;5063348;28;20028;-69
2022/09/17 00:24:40;;;;;;;16.80;2.85;;;15.90;81.00;;;;;;5073075;28;20040;-69
2022/09/17 00:27:06;;;;;;;11.57;2.40;;;15.90;81.30;;;;;;5070954;28;20020;-69
2022/09/17 00:29:32;;;;;;;15.25;2.38;;;15.90;81.60;;;;;;5061130;28;20039;-70
2022/09/17 00:31:57;;;;;;;24.00;3.33;;;15.90;81.80;;;;;;5070153;28;20453;-70
2022/09/17 00:34:23;;;;;;;21.80;2.40;;;15.80;81.50;;;;;;5072036;28;20040;-69
2022/09/17 00:36:49;;;;;;;18.40;2.67;;;15.80;81.50;;;;;;5069422;28;20095;-69
2022/09/17 00:39:15;;;;;;;16.10;2.50;;;15.80;81.30;;;;;;5063003;28;20561;-69
2022/09/17 00:41:42;;;;;;;11.70;2.22;;;15.80;81.00;;;;;;5071132;28;20047;-69
2022/09/17 00:44:40;;;;;;;11.07;2.22;;;15.80;81.10;;;;;;5073617;28;20051;-69
2022/09/17 00:47:29;;;;;;;10.02;2.78;;;15.90;81.10;;;;;;5054430;28;20040;-69
2022/09/17 00:50:02;;;;;;;3.67;0.82;;;15.80;81.20;;;;;;5059247;28;20056;-69
2022/09/17 00:52:32;;;;;;;3.83;1.60;;;15.90;82.50;;;;;;5073920;28;20040;-70
2022/09/17 00:55:15;;;;;;;10.70;1.85;;;15.80;83.30;;;;;;5072381;28;20498;-69
2022/09/17 00:57:44;;;;;;;11.63;2.15;;;15.80;84.10;;;;;;5062063;28;20483;-69
2022/09/17 01:00:12;;;;;;;9.80;1.77;;;15.80;85.00;;;;;;5072233;28;20492;-70
2022/09/17 01:02:38;;;;;;;6.70;1.23;;;15.80;85.10;;;;;;5073315;28;20024;-69
2022/09/17 01:05:05;;;;;;;16.70;2.08;;;15.80;84.90;;;;;;5070324;28;20463;-70
2022/09/17 01:07:34;;;;;;;7.22;1.88;;;15.80;84.80;;;;;;5054053;28;20029;-69
2022/09/17 01:10:21;;;;;;;8.18;1.65;;;15.80;84.30;;;;;;5068383;28;20483;-69
2022/09/17 01:13:04;;;;;;;10.48;1.85;;;15.80;83.80;;;;;;5069549;28;20047;-68
2022/09/17 01:15:48;;;;;;;11.85;2.40;;;15.80;83.60;;;;;;5063429;28;20024;-69
2022/09/17 01:18:42;;;;;;;;;;;15.70;83.10;;;;;;5075278;28;20357;-69
2022/09/17 01:21:19;;;;;;;;;;;15.70;83.10;;;;;;5057212;28;19955;-69
2022/09/17 01:24:26;;;;;;;7.85;1.58;;;15.70;83.10;;;;;;5071513;28;19920;-69
2022/09/17 01:27:10;;;;;;;10.85;2.50;;;15.70;82.20;;;;;;5067991;28;20032;-69
2022/09/17 01:29:47;;;;;;;6.78;1.50;;;15.60;82.00;;;;;;5074115;28;20029;-69
2022/09/17 01:32:29;;;;;;;10.30;1.40;;;15.60;81.90;;;;;;5056932;28;20032;-69
2022/09/17 01:35:19;;;;;;;14.25;2.50;;;15.50;82.20;;;;;;5069641;28;20046;-69
2022/09/17 01:37:55;;;;;;;14.23;2.22;;;15.60;82.80;;;;;;5070968;28;20103;-69
2022/09/17 01:40:27;;;;;;;19.95;2.45;;;15.60;83.10;;;;;;5052715;28;20469;-69
2022/09/17 01:43:00;;;;;;;20.90;3.70;;;15.60;83.40;;;;;;5052958;28;20487;-69
2022/09/17 01:45:36;;;;;;;12.93;1.67;;;15.60;83.70;;;;;;5062477;28;20048;-69
2022/09/17 01:48:18;;;;;;;6.40;1.33;;;15.60;84.00;;;;;;5056617;28;20112;-69
2022/09/17 01:50:56;;;;;;;11.80;1.23;;;15.60;84.50;;;;;;5073252;28;20082;-69
2022/09/17 01:53:27;;;;;;;15.52;2.70;;;15.60;84.50;;;;;;5061018;28;20054;-69
2022/09/17 01:55:55;;;;;;;16.77;2.20;;;15.60;84.10;;;;;;5069583;28;20051;-69
2022/09/17 01:58:24;;;;;;;11.35;1.80;;;15.60;83.70;;;;;;5053781;28;20029;-69
2022/09/17 02:00:57;;;;;;;13.25;1.67;;;15.60;82.90;;;;;;5055337;28;20028;-69
2022/09/17 02:03:45;;;;;;;8.13;1.48;;;15.60;82.20;;;;;;5072460;28;20025;-69
2022/09/17 02:06:23;;;;;;;15.18;1.80;;;15.60;81.60;;;;;;5058997;28;20028;-69
2022/09/17 02:09:01;;;;;;;6.80;1.60;;;15.50;81.40;;;;;;5069576;28;20383;-69
2022/09/17 02:11:28;;;;;;;8.85;1.45;;;15.60;82.20;;;;;;5070807;28;20032;-69
2022/09/17 02:14:04;;;;;;;7.15;1.35;;;15.50;81.90;;;;;;5055964;28;20074;-69
2022/09/17 02:16:34;;;;;;;18.25;2.42;;;15.50;81.80;;;;;;5063951;28;20115;-69
2022/09/17 02:19:19;;;;;;;12.27;2.33;;;15.50;80.90;;;;;;5052153;28;20510;-69
2022/09/17 02:22:18;;;;;;;9.25;1.70;;;15.50;80.10;;;;;;5064460;28;20431;-69
2022/09/17 02:25:09;;;;;;;4.38;1.25;;;15.50;79.70;;;;;;5070131;28;20036;-69
2022/09/17 02:27:59;;;;;;;13.15;1.95;;;15.50;80.20;;;;;;5063136;28;20031;-69
2022/09/17 02:30:25;;;;;;;7.45;1.70;;;15.50;80.00;;;;;;5058345;28;20041;-69
2022/09/17 02:32:52;;;;;;;15.23;2.22;;;15.50;79.60;;;;;;5061634;28;20044;-69
2022/09/17 02:35:18;;;;;;;17.67;2.40;;;15.40;79.90;;;;;;5056374;28;20086;-69
2022/09/17 02:37:44;;;;;;;8.00;1.58;;;15.40;79.50;;;;;;5066148;28;20115;-69
2022/09/17 02:40:12;;;;;;;10.65;1.77;;;15.40;79.40;;;;;;5054926;28;20056;-69
2022/09/17 02:42:53;;;;;;;11.07;2.15;;;15.40;79.10;;;;;;5054158;28;20522;-69
2022/09/17 02:45:54;;;;;;;14.13;2.22;;;15.40;78.90;;;;;;5059437;28;20055;-69
2022/09/17 02:48:37;;;;;;;12.45;1.90;;;15.40;79.40;;;;;;5050934;28;20040;-69
2022/09/17 02:51:22;;;;;;;13.55;2.72;;;15.30;78.40;;;;;;5089457;28;20098;-69
2022/09/17 02:54:21;;;;;;;8.70;1.83;;;15.30;80.10;;;;;;5081321;28;20056;-68
2022/09/17 02:56:47;;;;;;;9.68;1.23;;;15.30;80.30;;;;;;5015483;28;20051;-68
2022/09/17 02:59:23;;;;;;;12.68;1.98;;;15.20;80.70;;;;;;5066379;28;20017;-68
2022/09/17 03:02:11;;;;;;;9.48;1.63;;;15.20;81.00;;;;;;5057198;28;20056;-68
2022/09/17 03:04:38;;;;;;;11.50;2.13;;;15.20;81.30;;;;;;5064411;28;20043;-68
2022/09/17 03:07:10;;;;;;;8.30;1.45;;;15.20;81.30;;;;;;5051640;28;20024;-69
2022/09/17 03:09:37;;;;;;;12.53;1.90;;;15.20;80.90;;;;;;5056067;28;20468;-68
2022/09/17 03:12:03;;;;;;;8.65;1.70;;;15.30;81.00;;;;;;5050782;28;20315;-69
2022/09/17 03:14:29;;;;;;;12.27;2.17;;;15.30;80.90;;;;;;5052487;28;20091;-68
2022/09/17 03:16:55;;;;;;;9.68;1.83;;;15.30;81.10;;;;;;5065301;28;20033;-69
2022/09/17 03:19:20;;;;;;;12.25;2.45;;;15.40;81.00;;;;;;5063426;28;20075;-68
2022/09/17 03:21:46;;;;;;;16.15;2.47;;;15.40;80.90;;;;;;5064742;28;20025;-69
2022/09/17 03:24:12;;;;;;;14.73;1.85;;;15.30;80.70;;;;;;5070484;28;20077;-69
2022/09/17 03:26:38;;;;;;;8.05;1.70;;;15.30;80.50;;;;;;5066745;28;20033;-69
2022/09/17 03:29:04;;;;;;;10.60;2.13;;;15.30;80.20;;;;;;5070518;28;20032;-68
2022/09/17 03:31:29;;;;;;;10.85;2.50;;;15.30;80.30;;;;;;5070927;28;20091;-69
2022/09/17 03:33:55;;;;;;;13.30;1.75;;;15.30;80.10;;;;;;5069921;28;20464;-69
2022/09/17 03:36:21;;;;;;;11.27;1.85;;;15.30;80.30;;;;;;5057080;28;20021;-68
2022/09/17 03:38:56;;;;;;;7.25;1.77;;;15.30;80.10;;;;;;5068648;28;20067;-68
2022/09/17 03:41:21;;;;;;;17.60;2.10;;;15.30;80.10;;;;;;5069516;28;20025;-68
2022/09/17 03:43:47;;;;;;;10.93;2.15;;;15.20;80.30;;;;;;5070887;28;20490;-68
2022/09/17 03:46:13;;;;;;;9.35;1.92;;;15.20;80.30;;;;;;5057881;28;20522;-68
2022/09/17 03:48:38;;;;;;;7.35;1.73;;;15.10;80.30;;;;;;5057893;28;20075;-68
2022/09/17 03:51:05;;;;;;;10.60;1.70;;;15.10;80.10;;;;;;5057145;28;20528;-69
2022/09/17 03:53:31;;;;;;;18.83;1.98;;;15.10;80.30;;;;;;5068984;28;20082;-69
2022/09/17 03:56:02;;;;;;;16.42;3.90;;;15.10;80.40;;;;;;5063183;28;20036;-69
2022/09/17 03:58:29;;;;;;;9.95;2.63;;;15.10;80.20;;;;;;5051228;28;20079;-69
2022/09/17 04:00:56;;;;;;;15.93;2.90;;;15.10;80.40;;;;;;5065371;28;20028;-68
2022/09/17 04:03:28;;;;;;;11.45;2.00;;;15.10;80.10;;;;;;5068122;28;20032;-69
2022/09/17 04:05:54;;;;;;;13.48;1.92;;;15.00;79.60;;;;;;5064641;28;20055;-69
2022/09/17 04:08:20;;;;;;;14.98;3.08;;;15.10;79.70;;;;;;5070470;28;20035;-68
2022/09/17 04:10:46;;;;;;;12.95;1.95;;;15.10;79.80;;;;;;5057329;28;20025;-68
2022/09/17 04:13:14;;;;;;;11.07;1.92;;;15.10;80.00;;;;;;5059085;28;20044;-68
2022/09/17 04:15:40;;;;;;;7.82;1.67;;;15.00;80.70;;;;;;5067995;28;20032;-68
2022/09/17 04:18:06;;;;;;;7.68;1.77;;;15.10;80.50;;;;;;5058077;28;20075;-68
2022/09/17 04:20:32;;;;;;;7.85;1.40;;;15.00;80.70;;;;;;5064753;28;20095;-68
2022/09/17 04:22:58;;;;;;;11.23;1.77;;;15.00;80.90;;;;;;5063170;28;20032;-68
2022/09/17 04:25:23;;;;;;;2.72;1.33;;;15.00;81.40;;;;;;5073744;28;20045;-68
2022/09/17 04:27:49;;;;;;;9.15;1.67;;;15.00;82.20;;;;;;5069276;28;20120;-68
2022/09/17 04:30:15;;;;;;;8.98;1.45;;;15.00;82.00;;;;;;5067007;28;20059;-68
2022/09/17 04:32:43;;;;;;;13.32;1.77;;;15.00;81.90;;;;;;5057744;28;20029;-68
2022/09/17 04:35:09;;;;;;;12.05;1.70;;;15.00;81.70;;;;;;5067124;28;20060;-68
2022/09/17 04:37:34;;;;;;;18.15;3.05;;;15.00;81.60;;;;;;5058846;28;20053;-68
2022/09/17 04:40:01;;;;;;;12.30;2.10;;;15.00;80.90;;;;;;5063926;28;20488;-68
2022/09/17 04:42:27;;;;;;;12.38;2.30;;;15.00;80.30;;;;;;5064966;28;20024;-68
2022/09/17 04:44:52;;;;;;;10.15;1.77;;;15.00;80.50;;;;;;5065483;28;20058;-68
2022/09/17 04:47:18;;;;;;;21.52;2.80;;;15.00;80.80;;;;;;5067677;28;20043;-68
2022/09/17 04:49:43;;;;;;;17.60;2.35;;;15.00;81.00;;;;;;5064048;28;20403;-68
2022/09/17 04:52:09;;;;;;;12.52;2.60;;;15.00;81.00;;;;;;5065416;28;20070;-68
2022/09/17 04:54:35;;;;;;;13.43;1.83;;;15.00;80.70;;;;;;5068847;28;20115;-68
2022/09/17 04:57:00;;;;;;;17.30;2.20;;;15.00;80.30;;;;;;5064807;28;20025;-68
2022/09/17 04:59:26;;;;;;;18.83;2.47;;;14.90;80.00;;;;;;5067855;28;20028;-68
2022/09/17 05:01:52;;;;;;;10.93;2.03;;;14.90;79.60;;;;;;5068457;28;20419;-68
2022/09/17 05:04:17;;;;;;;17.58;2.08;;;14.90;79.90;;;;;;5071025;28;20037;-68
2022/09/17 05:06:43;;;;;;;9.93;1.75;;;14.90;79.90;;;;;;5064835;28;20448;-68
2022/09/17 05:09:08;;;;;;;12.82;2.28;;;14.90;80.20;;;;;;5062761;28;20028;-68
2022/09/17 05:11:34;;;;;;;10.15;2.22;;;14.80;80.30;;;;;;5066572;28;20013;-69
2022/09/17 05:14:00;;;;;;;14.20;1.77;;;14.90;80.40;;;;;;5064589;28;20421;-68
2022/09/17 05:16:25;;;;;;;10.13;1.92;;;14.90;80.00;;;;;;5063538;28;20502;-68
2022/09/17 05:18:51;;;;;;;11.52;2.55;;;14.80;80.00;;;;;;5063452;28;20111;-73
2022/09/17 05:21:19;;;;;;;16.35;1.85;;;14.90;79.90;;;;;;5068823;28;20033;-68
2022/09/17 05:23:45;;;;;;;7.57;2.10;;;14.80;79.40;;;;;;5067681;28;20079;-68
2022/09/17 05:26:10;;;;;;;11.00;1.85;;;14.80;79.00;;;;;;5067127;28;20055;-68
2022/09/17 05:28:36;;;;;;;14.05;1.60;;;14.80;78.40;;;;;;5064483;28;20028;-68
2022/09/17 05:31:02;;;;;;;8.85;2.30;;;14.70;79.20;;;;;;5068361;28;20043;-68
2022/09/17 05:33:28;;;;;;;5.70;1.08;;;14.80;79.20;;;;;;5062615;28;20460;-67
2022/09/17 05:35:54;;;;;;;12.30;2.38;;;14.70;79.30;;;;;;5062242;28;20020;-67
2022/09/17 05:38:19;;;;;;;9.90;1.60;;;14.70;79.40;;;;;;5064833;28;20032;-68
2022/09/17 05:40:54;;;;;;;10.10;1.40;;;14.70;80.00;;;;;;5063656;28;20064;-68
2022/09/17 05:43:20;;;;;;;18.13;2.03;;;14.80;80.00;;;;;;5065225;28;20037;-68
2022/09/17 05:45:45;;;;;;;6.05;1.60;;;14.70;80.10;;;;;;5071229;28;20107;-68
2022/09/17 05:48:13;;;;;;;8.65;1.63;;;14.70;80.50;;;;;;5068387;28;20047;-68
2022/09/17 05:50:41;;;;;;;10.57;2.67;;;14.70;80.20;;;;;;5071087;28;20036;-70
2022/09/17 05:53:11;;;;;;;8.90;2.08;;;14.80;80.30;;;;;;5070641;28;20028;-70
2022/09/17 05:55:37;;;;;;;7.43;1.73;;;14.80;79.60;;;;;;5060001;28;20033;-68
2022/09/17 05:58:14;;;;;;;16.27;2.38;;;14.80;79.40;;;;;;5066314;28;20473;-69
2022/09/17 06:00:40;;;;;;;17.83;2.58;;;14.80;79.10;;;;;;5055114;28;20047;-66
2022/09/17 06:03:08;;;;;;;13.00;1.52;;;14.80;78.80;;;;;;5063978;28;20415;-68
2022/09/17 06:05:34;;;;;;;10.95;2.10;;;14.90;78.90;;;;;;5061110;28;20040;-69
2022/09/17 06:08:00;;;;;;;11.93;2.00;;;14.80;78.80;;;;;;5064722;28;20016;-68
2022/09/17 06:10:25;;;;;;;11.90;2.28;;;14.90;79.00;;;;;;5063839;28;20074;-68
2022/09/17 06:12:58;;;;;;;16.65;2.53;;;14.90;79.20;;;;;;5062219;28;20436;-68
2022/09/17 06:15:25;;;;;;;5.32;1.38;;;14.90;80.10;;;;;;5060027;28;20059;-68
2022/09/17 06:17:53;;;;;;;12.48;2.28;;;14.90;81.40;;;;;;5062381;28;20064;-68
2022/09/17 06:20:20;;;;;;;17.15;2.45;;;14.90;82.10;;;;;;5067112;28;20044;-68
2022/09/17 06:22:46;;;;;;;12.45;2.20;;;14.90;82.20;;;;;;5070724;28;20074;-68
2022/09/17 06:25:12;;;;;;;14.55;2.05;;;14.90;82.10;;;;;;5073364;28;20040;-68
2022/09/17 06:27:37;;;;;;;13.32;2.78;;;14.90;82.20;;;;;;5061824;28;20052;-67
2022/09/17 06:30:04;;;;;;;13.50;2.40;;;14.90;82.30;;;;;;5066805;28;20051;-68
2022/09/17 06:32:32;;;;;;;14.70;2.50;;;14.90;82.30;;;;;;5066982;28;20032;-68
2022/09/17 06:34:57;;;;;;;14.52;2.13;;;14.90;81.80;;;;;;5065622;28;20047;-68
2022/09/17 06:37:31;;;;;;;12.93;2.08;;;14.90;81.70;;;;;;5069215;28;20451;-68
2022/09/17 06:39:57;;;;;;;;;;;14.90;81.70;;;;;;5063968;28;20115;-69
2022/09/17 06:42:24;;;;;;;14.65;1.95;;;14.80;81.60;;;;;;5060958;28;19912;-69
2022/09/17 06:44:50;;;;;;;6.93;1.50;;;14.80;81.70;;;;;;5064708;28;20450;-68
2022/09/17 06:47:18;;;;;;;16.35;2.03;;;14.80;81.90;;;;;;5061413;28;20423;-68
2022/09/17 06:49:44;;;;;;;15.07;2.50;;;14.80;82.20;;;;;;5051607;28;20040;-68
2022/09/17 06:52:09;;;;;;;16.40;2.67;;;14.80;82.50;;;;;;5054534;28;20021;-68
2022/09/17 06:54:35;;;;;;;17.13;2.72;;;14.80;82.60;;;;;;5059063;28;20431;-68
2022/09/17 06:57:01;;;;;;;17.77;2.25;;;14.80;82.70;;;;;;5061747;28;20366;-68
2022/09/17 06:59:27;;;;;;;7.43;1.40;;;14.80;82.70;;;;;;5058538;28;20036;-68
2022/09/17 07:01:52;;;;;;;8.98;1.80;;;14.90;82.20;;;;;;5069168;28;20388;-68
2022/09/17 07:04:18;;;;;;;11.63;1.58;;;14.90;81.70;;;;;;5064177;28;20108;-68
2022/09/17 07:06:44;;;;;;;17.63;2.67;;;14.90;81.40;;;;;;5054916;28;20040;-68
2022/09/17 07:09:11;;;;;;;11.45;1.70;;;14.90;81.40;;;;;;5054643;28;20029;-68
2022/09/17 07:11:39;;;;;;;6.93;1.35;;;14.90;81.20;;;;;;5063820;28;20032;-69
2022/09/17 07:14:05;;;;;;;14.07;2.10;;;15.00;81.50;;;;;;5071054;28;20387;-68
2022/09/17 07:16:34;;;;;;;10.20;1.58;;;15.00;81.60;;;;;;5057982;28;20029;-71
2022/09/17 07:19:04;;;;;;;16.33;2.22;;;15.00;81.50;;;;;;5051485;28;20056;-68
2022/09/17 07:21:30;;;;;;;14.45;2.10;;;15.00;81.50;;;;;;5066056;28;20032;-68
2022/09/17 07:23:56;;;;;;;10.40;1.88;;;15.00;81.50;;;;;;5063585;28;20139;-68
2022/09/17 07:26:22;;;;;;;16.15;2.20;;;15.00;81.20;;;;;;5073493;28;20097;-68
2022/09/17 07:28:47;;;;;;;12.48;1.80;;;15.00;81.40;;;;;;5071237;28;20039;-68
2022/09/17 07:31:14;;;;;;;13.98;1.77;;;15.10;81.50;;;;;;5069775;28;20107;-68
2022/09/17 07:33:40;;;;;;;10.85;1.80;;;15.10;81.60;;;;;;5060791;28;20104;-68
2022/09/17 07:36:09;;;;;;;14.18;2.10;;;15.10;81.70;;;;;;5054223;28;20028;-68
2022/09/17 07:38:35;;;;;;;12.88;1.90;;;15.10;82.00;;;;;;5061052;28;20055;-68
2022/09/17 07:41:03;;;;;;;10.57;1.40;;;15.10;82.60;;;;;;5066870;28;20500;-68
2022/09/17 07:43:31;;;;;;;14.70;1.92;;;15.20;82.00;;;;;;5071672;28;20029;-68
2022/09/17 07:45:58;;;;;;;12.95;2.58;;;15.20;82.50;;;;;;5064958;28;20040;-68
2022/09/17 07:48:24;;;;;;;15.60;2.83;;;15.20;82.10;;;;;;5063415;28;20108;-68
2022/09/17 07:50:50;;;;;;;9.77;1.58;;;15.20;82.20;;;;;;5064586;28;20032;-68
2022/09/17 07:53:16;;;;;;;13.50;1.58;;;15.10;82.40;;;;;;5063366;28;20725;-68
2022/09/17 07:55:42;;;;;;;7.20;1.30;;;15.10;82.50;;;;;;5054608;28;20173;-68
2022/09/17 07:58:08;;;;;;;6.50;1.45;;;15.10;82.40;;;;;;5059636;28;20033;-68
2022/09/17 08:00:33;;;;;;;6.13;1.70;;;15.20;82.40;;;;;;5055229;28;20062;-68
2022/09/17 08:02:59;;;;;;;11.88;1.60;;;15.10;82.40;;;;;;5070956;28;20032;-68
2022/09/17 08:05:25;;;;;;;12.43;2.13;;;15.10;82.60;;;;;;5064902;28;20040;-68
2022/09/17 08:07:52;;;;;;;13.10;2.22;;;15.10;83.00;;;;;;5062651;28;20530;-68
2022/09/17 08:10:20;;;;;;;7.82;1.25;;;15.10;83.20;;;;;;5065467;28;20032;-68
2022/09/17 08:12:50;;;;;;;9.88;1.70;;;15.00;83.70;;;;;;5058169;28;20035;-68
2022/09/17 08:15:17;;;;;;;14.18;1.98;;;15.00;84.50;;;;;;5060844;28;20033;-68
2022/09/17 08:17:44;;;;;;;9.27;1.52;;;15.00;84.40;;;;;;5067099;28;20037;-68
2022/09/17 08:20:10;;;;;;;8.00;1.52;;;15.00;84.10;;;;;;5076643;28;20115;-68
2022/09/17 08:22:35;;;;;;;11.10;2.28;;;15.00;85.00;;;;;;5080314;28;20036;-68
2022/09/17 08:25:08;;;;;;;13.80;1.50;;;15.00;84.90;;;;;;5071050;28;20043;-68
2022/09/17 08:27:34;;;;;;;22.48;2.38;;;15.00;84.60;;;;;;5074488;28;20036;-68
2022/09/17 08:30:00;;;;;;;10.75;2.15;;;15.00;84.90;;;;;;5072861;28;20090;-68
2022/09/17 08:32:28;;;;;;;12.27;1.98;;;15.10;85.50;;;;;;5074482;28;20033;-68
2022/09/17 08:34:54;;;;;;;12.98;2.08;;;15.10;85.20;;;;;;5074468;28;20113;-68
2022/09/17 08:37:19;;;;;;;6.88;1.48;;;15.10;84.80;;;;;;5072752;28;20119;-69
2022/09/17 08:39:45;;;;;;;15.25;2.17;;;15.10;85.00;;;;;;5067586;28;20052;-68
2022/09/17 08:42:19;;;;;;;10.30;1.98;;;15.10;84.90;;;;;;5067088;28;20082;-68
2022/09/17 08:44:46;;;;;;;10.15;1.77;;;15.20;84.30;;;;;;5073701;28;20491;-68
2022/09/17 08:47:12;;;;;;;11.45;2.20;;;15.30;83.60;;;;;;5071667;28;20029;-68
2022/09/17 08:49:46;;;;;;;14.38;2.05;;;15.30;83.10;;;;;;5062866;28;20024;-68
2022/09/17 08:52:33;;;;;;;9.70;1.63;;;15.30;82.70;;;;;;5072733;28;20048;-68
2022/09/17 08:55:23;;;;;;;6.93;2.13;;;15.40;82.60;;;;;;5060475;28;20082;-68
2022/09/17 08:57:58;;;;;;;13.23;1.73;;;15.40;83.00;;;;;;5073413;28;20032;-68
2022/09/17 09:00:37;;;;;;;16.42;2.88;;;15.30;83.30;;;;;;5068480;28;20134;-68
2022/09/17 09:03:43;;;;;;;21.10;2.97;;;15.40;83.80;;;;;;5067402;28;20032;-68
2022/09/17 09:06:10;;;;;;;14.82;1.83;;;15.40;84.10;;;;;;5067190;28;20036;-68
2022/09/17 09:08:39;;;;;;;19.33;2.25;;;15.30;83.80;;;;;;5057138;28;20487;-68
2022/09/17 09:11:13;;;;;;;8.27;1.92;;;15.40;84.00;;;;;;5053728;28;20067;-68
2022/09/17 09:13:43;;;;;;;12.93;1.77;;;15.40;83.80;;;;;;5061593;28;20579;-68
2022/09/17 09:16:31;;;;;;;9.63;1.48;;;15.40;83.40;;;;;;5067404;28;20031;-68
2022/09/17 09:19:04;;;;;;;6.65;1.55;;;15.40;83.10;;;;;;5053785;28;20029;-68
2022/09/17 09:21:47;;;;;;;0.77;0.45;;;15.40;82.90;;;;;;5060872;28;20400;-68
2022/09/17 09:24:22;;;;;;;11.65;1.77;;;15.50;83.10;;;;;;5066849;28;20040;-68
2022/09/17 09:27:15;;;;;;;10.80;1.75;;;15.50;82.50;;;;;;5066395;28;20032;-68
2022/09/17 09:29:51;;;;;;;8.98;1.58;;;15.50;82.80;;;;;;5056467;28;20033;-68
2022/09/17 09:32:49;;;;;;;7.72;1.42;;;15.60;83.20;;;;;;5072966;28;20029;-68
2022/09/17 09:35:26;;;;;;;13.30;1.77;;;15.60;82.10;;;;;;5063870;28;20043;-68
2022/09/17 09:38:14;;;;;;;3.78;1.45;;;15.70;82.20;;;;;;5071012;28;20082;-68
2022/09/17 09:41:08;;;;;;;6.32;1.17;;;15.80;82.40;;;;;;5068812;28;20072;-68
2022/09/17 09:43:42;;;;;;;14.93;2.25;;;15.80;81.80;;;;;;5065417;28;20093;-68
2022/09/17 09:46:07;;;;;;;12.65;2.47;;;15.80;81.10;;;;;;5057640;28;20029;-68
2022/09/17 09:48:45;;;;;;;11.80;2.17;;;15.90;81.50;;;;;;5070534;28;20039;-68
2022/09/17 09:51:35;;;;;;;11.88;1.98;;;15.90;81.50;;;;;;5072675;28;20414;-68
2022/09/17 09:54:16;;;;;;;7.10;2.22;;;16.00;81.50;;;;;;5055064;28;20040;-68
2022/09/17 09:57:02;;;;;;;6.20;1.60;;;15.90;81.60;;;;;;5054331;28;20052;-68
2022/09/17 09:59:28;;;;;;;5.68;1.20;;;16.00;81.90;;;;;;5053542;28;20056;-68
2022/09/17 10:01:54;;;;;;;10.43;1.20;;;15.90;81.90;;;;;;5058664;28;20044;-68
2022/09/17 10:04:31;;;;;;;6.28;1.27;;;16.00;82.20;;;;;;5062279;28;20041;-68
2022/09/17 10:07:04;;;;;;;11.85;1.85;;;16.00;82.60;;;;;;5067490;28;20063;-68
2022/09/17 10:09:31;;;;;;;3.08;1.42;;;16.10;81.70;;;;;;5068288;28;20094;-68
2022/09/17 10:12:08;;;;;;;3.78;1.10;;;16.00;82.00;;;;;;5069984;28;20469;-68
2022/09/17 10:14:36;;;;;;;9.85;1.85;;;16.10;82.00;;;;;;5062792;28;20468;-68
2022/09/17 10:17:23;;;;;;;9.05;1.00;;;16.10;81.90;;;;;;5058163;28;20082;-68
2022/09/17 10:20:00;;;;;;;20.30;1.95;;;16.10;82.00;;;;;;5070163;28;20032;-68
2022/09/17 10:22:35;;;;;;;10.23;2.90;;;16.20;82.70;;;;;;5059395;28;20515;-68
2022/09/17 10:25:02;;;;;;;9.27;1.17;;;16.10;82.70;;;;;;5064171;28;20048;-68
2022/09/17 10:27:29;;;;;;;3.85;1.30;;;16.10;83.00;;;;;;5064912;28;20028;-68
2022/09/17 10:30:16;;;;;;;3.45;1.17;;;16.20;82.90;;;;;;5057003;28;20119;-68
2022/09/17 10:32:42;;;;;;;7.03;1.35;;;16.20;83.10;;;;;;5071049;28;20034;-68
2022/09/17 10:35:14;;;;;;;5.78;1.23;;;16.20;82.80;;;;;;5072125;28;20024;-68
2022/09/17 10:37:45;;;;;;;5.30;1.05;;;16.30;82.80;;;;;;5070792;28;20036;-68
2022/09/17 10:40:19;;;;;;;3.92;0.88;;;16.30;82.80;;;;;;5070362;28;20094;-69
2022/09/17 10:42:50;;;;;;;5.10;1.20;;;16.30;82.70;;;;;;5065211;28;20108;-68
2022/09/17 10:45:29;;;;;;;1.77;0.85;;;16.30;82.20;;;;;;5059533;28;20051;-68
2022/09/17 10:47:56;;;;;;;4.10;0.88;;;16.30;82.60;;;;;;5052033;28;20035;-68
2022/09/17 10:50:31;;;;;;;6.22;1.08;;;16.30;82.70;;;;;;5057629;28;20082;-68
2022/09/17 10:53:15;;;;;;;9.95;1.70;;;16.40;82.50;;;;;;5061439;28;20044;-67
2022/09/17 10:55:43;;;;;;;4.78;1.48;;;16.40;81.90;;;;;;5057623;28;20025;-68
2022/09/17 10:58:13;;;;;;;4.38;0.88;;;16.40;81.20;;;;;;5057177;28;20537;-68
2022/09/17 11:00:43;;;;;;;9.00;1.92;;;16.40;81.60;;;;;;5056760;28;20494;-69
2022/09/17 11:03:20;;;;;;;5.75;1.00;;;16.50;80.70;;;;;;5057196;28;20032;-68
2022/09/17 11:06:11;;;;;;;4.65;1.48;;;16.50;81.10;;;;;;5055911;28;20101;-69
2022/09/17 11:09:14;;;;;;;8.95;1.73;;;16.60;81.10;;;;;;5064585;28;20119;-68
2022/09/17 11:12:10;;;;;;;4.10;0.90;;;16.60;79.60;;;;;;5066056;28;20028;-68
2022/09/17 11:15:09;;;;;;;11.40;2.03;;;16.60;80.40;;;;;;5068958;28;20039;-70
2022/09/17 11:17:50;;;;;;;9.85;1.50;;;16.70;80.20;;;;;;5060627;28;20064;-68
2022/09/17 11:20:53;;;;;;;6.13;1.30;;;16.70;79.60;;;;;;5068405;28;20067;-69
2022/09/17 11:23:30;;;;;;;6.05;1.17;;;16.70;79.80;;;;;;5064473;28;20040;-70
2022/09/17 11:26:10;;;;;;;9.32;1.60;;;16.80;80.40;;;;;;5069569;28;20506;-68
2022/09/17 11:28:41;;;;;;;12.77;1.98;;;16.90;79.90;;;;;;5052611;28;20048;-70
2022/09/17 11:31:13;;;;;;;13.07;1.98;;;16.90;79.10;;;;;;5052451;28;20032;-69
2022/09/17 11:33:58;;;;;;;16.67;2.42;;;16.90;79.20;;;;;;5069085;28;20060;-69
2022/09/17 11:36:28;;;;;;;9.82;1.98;;;17.00;79.70;;;;;;5068451;28;20059;-68
2022/09/17 11:39:03;;;;;;;16.17;3.17;;;16.90;80.70;;;;;;5058575;28;20056;-70
2022/09/17 11:41:34;;;;;;;11.15;1.77;;;17.00;81.20;;;;;;5070096;28;20036;-68
2022/09/17 11:44:23;;;;;;;12.80;1.58;;;17.00;81.60;;;;;;5066977;28;20083;-70
2022/09/17 11:47:06;;;;;;;10.27;1.63;;;17.00;81.00;;;;;;5051596;28;20029;-68
2022/09/17 11:49:44;;;;;;;10.15;1.30;;;17.10;81.30;;;;;;5060045;28;20106;-69
2022/09/17 11:52:39;;;;;;;7.38;1.33;;;17.10;80.90;;;;;;5060787;28;20029;-68
2022/09/17 11:55:22;;;;;;;7.13;1.30;;;17.20;80.60;;;;;;5062285;28;20121;-68
2022/09/17 11:57:56;;;;;;;9.53;1.20;;;17.20;81.30;;;;;;5071826;28;20031;-69
2022/09/17 12:00:22;;;;;;;6.70;1.08;;;17.20;81.20;;;;;;5054199;28;20116;-68
2022/09/17 12:03:05;;;;;;;9.77;2.00;;;17.20;81.60;;;;;;5059755;28;20083;-68
2022/09/17 12:05:36;;;;;;;5.70;1.30;;;17.20;79.90;;;;;;5057543;28;20045;-68
2022/09/17 12:08:35;;;;;;;5.28;1.35;;;17.30;80.30;;;;;;5065388;28;20032;-69
2022/09/17 12:11:22;;;;;;;5.68;0.82;;;17.30;81.10;;;;;;5068000;28;20067;-69
2022/09/17 12:14:08;;;;;;;5.72;1.23;;;17.30;82.00;;;;;;5064450;28;20525;-70
2022/09/17 12:16:42;;;;;;;11.75;1.73;;;17.40;81.20;;;;;;5072251;28;20070;-70
2022/09/17 12:19:14;;;;;;;5.38;1.30;;;17.40;81.10;;;;;;5065870;28;20033;-70
2022/09/17 12:21:46;;;;;;;7.80;1.85;;;17.50;81.80;;;;;;5055815;28;20154;-70
2022/09/17 12:24:20;;;;;;;4.00;1.10;;;17.40;80.80;;;;;;5070001;28;20044;-70
2022/09/17 12:27:06;;;;;;;8.43;1.70;;;17.40;81.40;;;;;;5066506;28;20033;-71
2022/09/17 12:29:55;;;;;;;10.27;1.55;;;17.50;82.20;;;;;;5073500;28;20048;-70
2022/09/17 12:32:39;;;;;;;5.97;1.10;;;17.50;81.50;;;;;;5067782;28;20033;-70
2022/09/17 12:35:11;;;;;;;2.33;0.65;;;17.50;81.70;;;;;;5064250;28;20495;-70
2022/09/17 12:38:17;;;;;;;8.32;1.58;;;17.40;82.70;;;;;;5071195;28;20032;-70
2022/09/17 12:40:58;;;;;;;4.20;1.15;;;17.50;81.60;;;;;;5069384;28;20045;-72
2022/09/17 12:43:45;;;;;;;8.50;1.02;;;17.50;81.20;;;;;;5067867;28;20040;-72
2022/09/17 12:46:26;;;;;;;9.25;1.25;;;17.50;80.60;;;;;;5065609;28;20047;-71
2022/09/17 12:49:32;;;;;;;10.15;1.45;;;17.50;81.40;;;;;;5067393;28;20036;-70
2022/09/17 12:52:14;;;;;;;7.25;2.10;;;17.50;82.00;;;;;;5071361;28;20123;-71
2022/09/17 12:55:17;;;;;;;9.57;2.03;;;17.50;80.80;;;;;;5062302;28;20070;-70
2022/09/17 12:58:05;;;;;;;11.52;2.17;;;17.50;81.10;;;;;;5065451;28;20486;-70
2022/09/17 13:00:41;;;;;;;12.93;1.92;;;17.50;80.20;;;;;;5067861;28;20107;-70
2022/09/17 13:03:44;;;;;;;11.38;2.17;;;17.50;80.70;;;;;;5067060;28;20044;-72
2022/09/17 13:06:23;;;;;;;5.80;1.30;;;17.50;80.80;;;;;;5061556;28;20070;-71
2022/09/17 13:09:21;;;;;;;8.77;1.80;;;17.60;81.60;;;;;;5066088;28;20534;-71